Time;durP1;ratioP1;P1;durP2;ratioP2;P2;SDS_P1;SDS_P2;PMS_P1;PMS_P2;Temp;Humidity;BMP_temperature;BMP_pressure;BME280_temperature;BME280_humidity;BME280_pressure;Samples;Min_cycle;Max_cycle;Signal;HPM_P1;HPM_P2
2021/08/20 00:00:14;;;;;;;1.20;1.00;;;18.90;66.50;;;;;;5068137;28;20407;-72
2021/08/20 00:02:39;;;;;;;0.65;0.65;;;18.80;66.50;;;;;;5065925;28;20283;-73
2021/08/20 00:05:07;;;;;;;1.25;1.15;;;18.80;66.50;;;;;;5067476;28;20219;-72
2021/08/20 00:07:32;;;;;;;0.98;0.90;;;18.80;66.80;;;;;;5068702;28;20175;-73
2021/08/20 00:09:59;;;;;;;1.20;1.05;;;18.70;67.20;;;;;;5062594;28;20248;-73
2021/08/20 00:12:26;;;;;;;1.33;0.65;;;18.70;67.40;;;;;;5063156;28;20887;-73
2021/08/20 00:14:52;;;;;;;0.73;0.73;;;18.60;67.40;;;;;;5065952;28;20746;-73
2021/08/20 00:17:18;;;;;;;0.77;0.77;;;18.60;67.20;;;;;;5070984;28;20287;-73
2021/08/20 00:19:43;;;;;;;2.50;0.65;;;18.50;67.20;;;;;;5071574;28;20194;-72
2021/08/20 00:22:09;;;;;;;2.15;1.00;;;18.40;67.70;;;;;;5068017;28;20240;-72
2021/08/20 00:24:36;;;;;;;2.80;0.68;;;18.40;68.00;;;;;;5072960;28;20174;-73
2021/08/20 00:27:02;;;;;;;0.68;0.68;;;18.30;67.90;;;;;;5068358;28;20267;-74
2021/08/20 00:29:28;;;;;;;1.30;0.80;;;18.20;68.00;;;;;;5059839;28;20183;-73
2021/08/20 00:31:54;;;;;;;0.70;0.70;;;18.20;68.10;;;;;;5067128;28;20684;-74
2021/08/20 00:34:20;;;;;;;1.17;0.70;;;18.20;68.10;;;;;;5070529;28;20605;-75
2021/08/20 00:36:46;;;;;;;1.10;0.93;;;18.10;68.20;;;;;;5070367;28;20286;-74
2021/08/20 00:39:12;;;;;;;0.95;0.95;;;18.10;68.90;;;;;;5069641;28;20180;-75
2021/08/20 00:41:40;;;;;;;3.00;0.73;;;18.00;68.40;;;;;;5070081;28;20622;-74
2021/08/20 00:44:06;;;;;;;0.90;0.90;;;18.00;68.60;;;;;;5071139;28;20226;-74
2021/08/20 00:46:32;;;;;;;1.13;0.70;;;18.00;68.60;;;;;;5065775;28;20214;-73
2021/08/20 00:48:57;;;;;;;2.47;0.82;;;17.90;68.80;;;;;;5077657;28;20660;-74
2021/08/20 00:51:24;;;;;;;1.15;0.85;;;17.90;68.90;;;;;;5066368;28;20203;-74
2021/08/20 00:53:52;;;;;;;3.63;0.80;;;17.90;69.20;;;;;;5066675;28;20272;-74
2021/08/20 00:56:19;;;;;;;0.75;0.73;;;17.80;69.30;;;;;;5068746;28;20210;-74
2021/08/20 00:58:47;;;;;;;4.32;1.00;;;17.80;69.40;;;;;;5060857;28;20733;-74
2021/08/20 01:01:13;;;;;;;1.45;1.35;;;17.70;69.20;;;;;;5071627;28;20207;-74
2021/08/20 01:03:39;;;;;;;0.93;0.73;;;17.70;69.10;;;;;;5067775;28;20269;-74
2021/08/20 01:06:06;;;;;;;0.80;0.80;;;17.70;69.40;;;;;;5069260;28;20573;-74
2021/08/20 01:08:33;;;;;;;1.02;1.02;;;17.70;69.40;;;;;;5067565;28;20257;-74
2021/08/20 01:11:00;;;;;;;1.73;0.90;;;17.60;69.30;;;;;;5067013;28;20233;-73
2021/08/20 01:13:30;;;;;;;0.95;0.95;;;17.60;69.20;;;;;;5073629;28;20611;-74
2021/08/20 01:15:56;;;;;;;0.98;0.98;;;17.60;69.20;;;;;;5074541;28;20217;-74
2021/08/20 01:18:33;;;;;;;0.82;0.82;;;17.60;69.70;;;;;;5072968;28;20680;-74
2021/08/20 01:21:02;;;;;;;3.25;0.90;;;17.50;69.30;;;;;;5067335;28;20196;-74
2021/08/20 01:23:28;;;;;;;0.98;0.98;;;17.50;69.70;;;;;;5065200;28;20175;-74
2021/08/20 01:25:57;;;;;;;1.02;1.02;;;17.50;69.60;;;;;;5054749;28;20270;-74
2021/08/20 01:28:24;;;;;;;1.20;0.77;;;17.50;69.50;;;;;;5064309;28;20606;-72
2021/08/20 01:31:12;;;;;;;3.28;1.10;;;17.50;69.90;;;;;;5065408;28;20187;-72
2021/08/20 01:33:39;;;;;;;0.82;0.82;;;17.50;70.70;;;;;;5057789;28;20889;-72
2021/08/20 01:36:05;;;;;;;0.75;0.73;;;17.50;70.20;;;;;;5067385;28;20595;-73
2021/08/20 01:38:34;;;;;;;1.05;1.00;;;17.50;70.10;;;;;;5067415;28;20562;-72
2021/08/20 01:40:59;;;;;;;0.77;0.77;;;17.50;70.10;;;;;;5069070;28;20171;-75
2021/08/20 01:43:25;;;;;;;0.80;0.80;;;17.50;70.10;;;;;;5059878;28;20198;-72
2021/08/20 01:45:51;;;;;;;1.00;0.95;;;17.50;69.90;;;;;;5070484;28;20576;-72
2021/08/20 01:48:18;;;;;;;2.35;0.82;;;17.50;69.70;;;;;;5066095;28;20659;-73
2021/08/20 01:50:44;;;;;;;7.22;0.90;;;17.50;69.90;;;;;;5075605;28;20216;-73
2021/08/20 01:53:14;;;;;;;1.08;0.80;;;17.50;70.20;;;;;;5070847;28;20284;-73
2021/08/20 01:55:49;;;;;;;1.10;1.10;;;17.50;69.70;;;;;;5072359;28;20214;-73
2021/08/20 01:58:14;;;;;;;0.80;0.80;;;17.50;69.90;;;;;;5062688;28;20181;-74
2021/08/20 02:00:40;;;;;;;1.40;1.30;;;17.50;70.40;;;;;;5067435;28;20209;-74
2021/08/20 02:03:06;;;;;;;0.98;0.98;;;17.50;70.20;;;;;;5069855;28;20212;-74
2021/08/20 02:05:33;;;;;;;2.42;1.00;;;17.40;70.20;;;;;;5057429;28;20194;-74
2021/08/20 02:08:00;;;;;;;0.95;0.95;;;17.40;70.10;;;;;;5065731;28;20174;-74
2021/08/20 02:10:25;;;;;;;0.88;0.88;;;17.40;70.70;;;;;;5072506;28;20188;-74
2021/08/20 02:12:51;;;;;;;0.98;0.98;;;17.40;71.00;;;;;;5067515;28;20195;-74
2021/08/20 02:15:17;;;;;;;1.40;0.95;;;17.40;70.60;;;;;;5073993;28;20306;-74
2021/08/20 02:17:43;;;;;;;0.75;0.70;;;17.40;70.40;;;;;;5066891;28;20187;-74
2021/08/20 02:20:09;;;;;;;0.80;0.80;;;17.40;70.20;;;;;;5068580;28;20183;-74
2021/08/20 02:22:35;;;;;;;0.70;0.70;;;17.40;70.20;;;;;;5071927;28;20282;-74
2021/08/20 02:25:00;;;;;;;0.63;0.63;;;17.30;70.50;;;;;;5071799;28;20330;-74
2021/08/20 02:27:26;;;;;;;1.15;0.82;;;17.30;70.70;;;;;;5064694;28;20632;-73
2021/08/20 02:29:52;;;;;;;1.30;1.00;;;17.30;70.50;;;;;;5063991;28;20685;-74
2021/08/20 02:32:17;;;;;;;1.13;0.80;;;17.30;70.90;;;;;;5068682;28;20210;-74
2021/08/20 02:34:43;;;;;;;2.65;0.98;;;17.30;70.70;;;;;;5070960;28;20186;-73
2021/08/20 02:37:09;;;;;;;0.90;0.90;;;17.30;70.70;;;;;;5065859;28;20222;-73
2021/08/20 02:39:35;;;;;;;0.95;0.95;;;17.30;70.90;;;;;;5063788;28;20189;-73
2021/08/20 02:42:01;;;;;;;1.50;1.15;;;17.30;70.90;;;;;;5063318;28;20190;-73
2021/08/20 02:44:27;;;;;;;0.82;0.82;;;17.30;71.00;;;;;;5066632;28;20211;-73
2021/08/20 02:46:53;;;;;;;1.48;1.25;;;17.30;71.00;;;;;;5062920;28;20964;-74
2021/08/20 02:49:18;;;;;;;1.30;1.20;;;17.30;70.80;;;;;;5063807;28;20193;-74
2021/08/20 02:51:44;;;;;;;1.15;1.15;;;17.30;70.90;;;;;;5061887;28;20184;-74
2021/08/20 02:54:10;;;;;;;2.25;1.20;;;17.20;71.40;;;;;;5055925;28;20237;-74
2021/08/20 02:56:36;;;;;;;0.85;0.85;;;17.20;71.40;;;;;;5061523;28;20244;-74
2021/08/20 02:59:02;;;;;;;0.90;0.90;;;17.20;71.40;;;;;;5064138;28;20656;-74
2021/08/20 03:01:27;;;;;;;1.85;1.02;;;17.20;71.30;;;;;;5070562;28;20833;-75
2021/08/20 03:03:53;;;;;;;1.58;1.48;;;17.20;71.60;;;;;;5058821;28;20179;-75
2021/08/20 03:06:19;;;;;;;1.45;1.35;;;17.20;71.40;;;;;;5068723;28;20753;-74
2021/08/20 03:08:45;;;;;;;1.80;1.27;;;17.20;71.60;;;;;;5062348;28;20183;-74
2021/08/20 03:11:11;;;;;;;1.17;1.17;;;17.20;71.90;;;;;;5063903;28;20591;-74
2021/08/20 03:13:36;;;;;;;1.38;1.38;;;17.20;72.00;;;;;;5070575;28;20300;-74
2021/08/20 03:16:02;;;;;;;2.22;1.95;;;17.20;72.00;;;;;;5073626;28;20221;-74
2021/08/20 03:18:28;;;;;;;1.27;1.25;;;17.10;72.20;;;;;;5064823;28;20190;-74
2021/08/20 03:20:54;;;;;;;1.55;1.52;;;17.10;72.40;;;;;;5072679;28;20193;-74
2021/08/20 03:23:19;;;;;;;3.53;1.52;;;17.10;72.50;;;;;;5060214;28;20225;-73
2021/08/20 03:25:45;;;;;;;1.88;1.40;;;17.10;72.50;;;;;;5064585;28;20186;-73
2021/08/20 03:28:11;;;;;;;2.85;1.10;;;17.10;72.70;;;;;;5070112;28;20206;-75
2021/08/20 03:30:37;;;;;;;1.27;1.17;;;17.00;72.80;;;;;;5063532;28;20187;-75
2021/08/20 03:33:04;;;;;;;1.17;1.13;;;17.00;72.70;;;;;;5060317;28;20813;-75
2021/08/20 03:35:30;;;;;;;1.08;1.05;;;16.90;73.10;;;;;;5070827;28;20178;-75
2021/08/20 03:37:58;;;;;;;3.88;1.55;;;16.90;73.20;;;;;;5062122;28;20240;-75
2021/08/20 03:40:27;;;;;;;2.55;1.50;;;16.90;73.20;;;;;;5069856;28;20179;-75
2021/08/20 03:42:53;;;;;;;1.60;1.50;;;16.90;73.30;;;;;;5070460;28;20240;-75
2021/08/20 03:45:19;;;;;;;5.75;1.50;;;16.90;73.70;;;;;;5073634;28;20180;-75
2021/08/20 03:47:45;;;;;;;1.95;1.95;;;16.90;74.00;;;;;;5065441;28;21519;-75
2021/08/20 03:50:11;;;;;;;3.42;1.58;;;16.90;74.60;;;;;;5068701;28;20186;-75
2021/08/20 03:52:37;;;;;;;1.85;1.48;;;16.90;75.10;;;;;;5067497;28;20190;-75
2021/08/20 03:55:03;;;;;;;1.60;1.50;;;16.90;75.00;;;;;;5075012;28;20253;-76
2021/08/20 03:57:28;;;;;;;1.80;1.65;;;16.80;76.20;;;;;;5067022;28;20301;-75
2021/08/20 03:59:56;;;;;;;3.10;1.95;;;16.80;75.30;;;;;;5070913;28;20697;-75
2021/08/20 04:02:22;;;;;;;1.38;1.38;;;16.80;75.40;;;;;;5066123;28;20189;-75
2021/08/20 04:04:48;;;;;;;3.53;1.60;;;16.70;75.30;;;;;;5074943;28;20183;-75
2021/08/20 04:07:19;;;;;;;1.60;1.60;;;16.70;75.20;;;;;;5071400;28;20286;-75
2021/08/20 04:09:45;;;;;;;1.10;1.10;;;16.70;74.80;;;;;;5072462;28;20563;-76
2021/08/20 04:12:10;;;;;;;1.77;1.67;;;16.70;75.10;;;;;;5069784;28;20187;-75
2021/08/20 04:14:36;;;;;;;1.77;1.67;;;16.70;75.40;;;;;;5067256;28;20194;-76
2021/08/20 04:17:02;;;;;;;1.33;1.23;;;16.70;75.40;;;;;;5063855;28;20218;-76
2021/08/20 04:19:28;;;;;;;1.33;1.33;;;16.70;77.00;;;;;;5073610;28;20680;-75
2021/08/20 04:21:54;;;;;;;1.60;1.60;;;16.70;75.90;;;;;;5071040;28;20217;-76
2021/08/20 04:24:19;;;;;;;1.55;1.45;;;16.80;75.80;;;;;;5078306;28;20229;-75
2021/08/20 04:26:45;;;;;;;1.88;1.77;;;16.80;75.80;;;;;;5073717;28;20664;-76
2021/08/20 04:29:12;;;;;;;1.73;1.60;;;16.80;75.80;;;;;;5071223;28;20769;-76
2021/08/20 04:31:37;;;;;;;1.80;1.48;;;16.80;75.60;;;;;;5068924;28;20202;-74
2021/08/20 04:34:03;;;;;;;4.97;1.70;;;16.80;75.50;;;;;;5075066;28;20186;-74
2021/08/20 04:36:29;;;;;;;1.80;1.70;;;16.80;75.70;;;;;;5079200;28;20213;-74
2021/08/20 04:38:55;;;;;;;2.03;1.52;;;16.90;75.20;;;;;;5069186;28;20623;-74
2021/08/20 04:41:20;;;;;;;2.28;1.48;;;16.90;75.00;;;;;;5066748;28;20730;-74
2021/08/20 04:43:46;;;;;;;2.17;1.52;;;17.00;74.90;;;;;;5071496;28;20178;-74
2021/08/20 04:46:12;;;;;;;2.05;1.55;;;17.00;75.10;;;;;;5068762;28;20187;-74
2021/08/20 04:48:37;;;;;;;2.03;1.92;;;17.10;74.70;;;;;;5073309;28;20721;-74
2021/08/20 04:51:03;;;;;;;1.63;1.52;;;17.20;74.70;;;;;;5075931;28;21005;-74
2021/08/20 04:53:31;;;;;;;2.05;1.80;;;17.20;74.20;;;;;;5065782;28;20193;-74
2021/08/20 04:55:58;;;;;;;1.52;1.50;;;17.30;74.00;;;;;;5065852;28;21019;-74
2021/08/20 04:58:24;;;;;;;1.98;1.88;;;17.30;73.60;;;;;;5068341;28;20960;-74
2021/08/20 05:00:50;;;;;;;2.60;1.70;;;17.40;73.60;;;;;;5070909;28;20294;-75
2021/08/20 05:03:16;;;;;;;1.83;1.70;;;17.40;73.40;;;;;;5068357;28;20183;-76
2021/08/20 05:05:43;;;;;;;1.95;1.63;;;17.40;73.50;;;;;;5066873;28;20197;-76
2021/08/20 05:08:10;;;;;;;2.10;2.00;;;17.50;73.40;;;;;;5069604;28;20175;-75
2021/08/20 05:10:36;;;;;;;2.42;1.92;;;17.50;73.20;;;;;;5074088;28;20578;-76
2021/08/20 05:13:01;;;;;;;2.40;1.50;;;17.50;73.80;;;;;;5060394;28;20200;-76
2021/08/20 05:15:27;;;;;;;1.63;1.50;;;17.50;73.20;;;;;;5071635;28;20266;-76
2021/08/20 05:17:54;;;;;;;2.33;2.15;;;17.50;73.60;;;;;;5061388;28;20203;-76
2021/08/20 05:20:20;;;;;;;2.33;1.75;;;17.50;73.20;;;;;;5055390;28;20228;-75
2021/08/20 05:22:48;;;;;;;2.25;2.08;;;17.60;73.00;;;;;;5066481;28;20186;-75
2021/08/20 05:25:14;;;;;;;2.70;1.48;;;17.60;73.10;;;;;;5067760;28;20190;-75
2021/08/20 05:27:40;;;;;;;1.70;1.60;;;17.70;73.30;;;;;;5073931;28;22256;-75
2021/08/20 05:30:06;;;;;;;2.35;2.25;;;17.70;73.20;;;;;;5063650;28;20183;-75
2021/08/20 05:32:32;;;;;;;1.70;1.60;;;17.70;73.80;;;;;;5069125;28;20659;-75
2021/08/20 05:34:58;;;;;;;4.00;2.40;;;17.70;73.30;;;;;;5061943;28;20186;-76
2021/08/20 05:37:23;;;;;;;2.13;2.00;;;17.70;74.50;;;;;;5071178;28;20301;-76
2021/08/20 05:39:49;;;;;;;1.77;1.70;;;17.70;74.60;;;;;;5068600;28;20188;-79
2021/08/20 05:42:15;;;;;;;2.40;2.20;;;17.70;73.70;;;;;;5067590;28;20623;-75
2021/08/20 05:44:40;;;;;;;2.25;2.15;;;17.70;73.60;;;;;;5071903;28;20212;-76
2021/08/20 05:47:06;;;;;;;2.65;2.45;;;17.80;73.60;;;;;;5070605;28;20201;-76
2021/08/20 05:49:32;;;;;;;3.75;1.65;;;17.80;74.00;;;;;;5071071;28;20225;-73
2021/08/20 05:51:58;;;;;;;2.97;1.65;;;17.90;73.80;;;;;;5070572;28;20179;-74
2021/08/20 05:54:23;;;;;;;2.38;1.77;;;17.90;73.60;;;;;;5068364;28;20185;-75
2021/08/20 05:56:49;;;;;;;1.83;1.73;;;18.00;73.90;;;;;;5069541;28;20214;-75
2021/08/20 05:59:15;;;;;;;2.45;2.35;;;18.10;74.00;;;;;;5072020;28;20222;-74
2021/08/20 06:01:40;;;;;;;2.75;2.55;;;18.20;74.30;;;;;;5068218;28;20182;-76
2021/08/20 06:04:06;;;;;;;1.90;1.80;;;18.20;74.00;;;;;;5076513;28;20180;-75
2021/08/20 06:06:32;;;;;;;2.63;2.42;;;18.30;74.60;;;;;;5069708;28;20175;-76
2021/08/20 06:08:57;;;;;;;2.65;2.45;;;18.40;74.70;;;;;;5066968;28;20176;-76
2021/08/20 06:11:23;;;;;;;2.47;2.08;;;18.40;74.90;;;;;;5075521;28;20256;-80
2021/08/20 06:13:49;;;;;;;4.35;2.10;;;18.50;74.80;;;;;;5068683;28;20199;-80
2021/08/20 06:16:16;;;;;;;2.47;2.38;;;18.60;75.00;;;;;;5068594;28;20210;-80
2021/08/20 06:18:41;;;;;;;8.25;3.15;;;18.60;75.00;;;;;;5075654;28;20194;-80
2021/08/20 06:21:08;;;;;;;1.45;1.45;;;18.70;75.90;;;;;;5067401;28;20644;-80
2021/08/20 06:23:34;;;;;;;2.58;1.88;;;18.80;75.40;;;;;;5069463;28;20629;-74
2021/08/20 06:25:59;;;;;;;1.80;1.70;;;18.90;75.50;;;;;;5068854;28;20319;-75
2021/08/20 06:28:25;;;;;;;2.40;2.30;;;19.00;76.00;;;;;;5071238;28;20217;-75
2021/08/20 06:30:51;;;;;;;2.00;1.90;;;19.00;75.40;;;;;;5071670;28;20208;-75
2021/08/20 06:33:17;;;;;;;1.80;1.70;;;19.10;75.40;;;;;;5066647;28;20270;-74
2021/08/20 06:35:43;;;;;;;1.80;1.73;;;19.20;75.50;;;;;;5069266;28;20222;-74
2021/08/20 06:38:09;;;;;;;2.03;2.03;;;19.30;75.40;;;;;;5066794;28;20176;-76
2021/08/20 06:40:35;;;;;;;2.95;2.65;;;19.40;75.80;;;;;;5072328;28;20170;-75
2021/08/20 06:43:01;;;;;;;2.08;1.98;;;19.40;75.90;;;;;;5061386;28;20722;-76
2021/08/20 06:45:27;;;;;;;3.45;2.17;;;19.60;77.00;;;;;;5071418;28;20269;-75
2021/08/20 06:47:53;;;;;;;1.60;1.60;;;19.70;75.50;;;;;;5071159;28;20619;-76
2021/08/20 06:50:19;;;;;;;1.60;1.50;;;19.80;75.70;;;;;;5075691;28;20255;-76
2021/08/20 06:52:45;;;;;;;1.92;1.83;;;19.90;76.80;;;;;;5065703;28;20179;-76
2021/08/20 06:55:11;;;;;;;3.00;2.20;;;20.00;75.30;;;;;;5067185;28;20197;-76
2021/08/20 06:57:37;;;;;;;2.05;1.95;;;20.10;75.10;;;;;;5069067;28;20207;-75
2021/08/20 07:00:04;;;;;;;2.35;2.22;;;20.20;75.00;;;;;;5071765;28;20225;-75
2021/08/20 07:02:30;;;;;;;6.10;2.90;;;20.30;74.90;;;;;;5065025;28;20207;-75
2021/08/20 07:04:55;;;;;;;2.10;2.03;;;20.40;74.30;;;;;;5067782;28;20644;-77
2021/08/20 07:07:21;;;;;;;1.75;1.65;;;20.50;74.50;;;;;;5063374;28;20270;-76
2021/08/20 07:09:47;;;;;;;2.10;1.80;;;20.60;75.10;;;;;;5064956;28;20178;-78
2021/08/20 07:12:12;;;;;;;2.10;1.92;;;20.70;75.20;;;;;;5069071;28;20265;-75
2021/08/20 07:14:38;;;;;;;2.08;1.92;;;20.80;74.30;;;;;;5061324;28;20202;-75
2021/08/20 07:17:04;;;;;;;2.47;2.38;;;20.90;74.10;;;;;;5068221;28;20719;-75
2021/08/20 07:19:29;;;;;;;3.08;1.90;;;21.00;74.10;;;;;;5061535;28;20258;-75
2021/08/20 07:21:55;;;;;;;1.55;1.55;;;21.00;73.70;;;;;;5060211;28;20295;-76
2021/08/20 07:24:21;;;;;;;2.10;2.00;;;21.20;74.20;;;;;;5059156;28;20592;-80
2021/08/20 07:26:46;;;;;;;2.03;1.88;;;21.20;73.30;;;;;;5073007;28;20186;-80
2021/08/20 07:29:12;;;;;;;1.80;1.80;;;21.30;73.10;;;;;;5072390;28;20611;-80
2021/08/20 07:31:38;;;;;;;1.60;1.50;;;21.40;74.20;;;;;;5071553;28;20178;-80
2021/08/20 07:34:04;;;;;;;2.08;1.98;;;21.50;72.60;;;;;;5064930;28;20188;-73
2021/08/20 07:36:29;;;;;;;1.90;1.80;;;21.60;72.90;;;;;;5069914;28;20222;-75
2021/08/20 07:38:55;;;;;;;1.80;1.70;;;21.70;73.10;;;;;;5064233;28;20175;-74
2021/08/20 07:41:21;;;;;;;1.60;1.52;;;21.80;73.20;;;;;;5069324;28;20724;-76
2021/08/20 07:43:47;;;;;;;1.88;1.75;;;21.90;72.80;;;;;;5068074;28;20265;-74
2021/08/20 07:46:12;;;;;;;2.13;1.77;;;22.00;74.30;;;;;;5064894;28;20218;-77
2021/08/20 07:48:38;;;;;;;3.33;2.13;;;22.00;72.10;;;;;;5070053;28;20189;-77
2021/08/20 07:51:04;;;;;;;2.88;2.10;;;22.10;72.00;;;;;;5072837;28;20184;-77
2021/08/20 07:53:30;;;;;;;2.15;2.08;;;22.20;72.10;;;;;;5066758;28;20194;-77
2021/08/20 07:55:57;;;;;;;2.75;1.90;;;22.30;72.30;;;;;;5066893;28;20765;-76
2021/08/20 07:58:23;;;;;;;2.88;1.95;;;22.40;72.90;;;;;;5069283;28;20841;-76
2021/08/20 08:00:49;;;;;;;2.50;1.80;;;22.60;72.50;;;;;;5061436;28;20225;-73
2021/08/20 08:03:15;;;;;;;1.95;1.85;;;22.60;71.30;;;;;;5068906;28;20190;-76
2021/08/20 08:05:40;;;;;;;2.70;2.00;;;22.60;70.90;;;;;;5071424;28;20187;-76
2021/08/20 08:08:06;;;;;;;5.07;2.80;;;22.70;71.60;;;;;;5071047;28;20550;-75
2021/08/20 08:10:32;;;;;;;1.95;1.85;;;22.70;71.50;;;;;;5070250;28;20270;-76
2021/08/20 08:12:58;;;;;;;2.17;1.95;;;22.80;71.80;;;;;;5069298;28;20718;-76
2021/08/20 08:15:24;;;;;;;3.13;1.80;;;22.80;70.70;;;;;;5068352;28;20844;-76
2021/08/20 08:17:51;;;;;;;2.17;1.98;;;22.90;71.10;;;;;;5070134;28;20219;-76
2021/08/20 08:20:18;;;;;;;1.90;1.83;;;23.00;70.80;;;;;;5064019;28;20222;-78
2021/08/20 08:22:44;;;;;;;1.55;1.55;;;23.10;70.00;;;;;;5064556;28;20270;-77
2021/08/20 08:25:10;;;;;;;3.00;1.90;;;23.20;70.20;;;;;;5069216;28;20186;-77
2021/08/20 08:27:57;;;;;;;2.15;1.98;;;23.40;69.70;;;;;;5069814;28;20277;-77
2021/08/20 08:30:26;;;;;;;2.22;2.08;;;23.50;70.60;;;;;;5067159;28;20230;-77
2021/08/20 08:32:52;;;;;;;5.85;1.90;;;23.70;70.10;;;;;;5058760;28;20270;-76
2021/08/20 08:35:17;;;;;;;2.30;1.85;;;23.80;69.90;;;;;;5071080;28;20267;-77
2021/08/20 08:37:43;;;;;;;2.03;1.98;;;24.00;69.70;;;;;;5069381;28;20242;-75
2021/08/20 08:40:09;;;;;;;2.17;1.92;;;24.10;69.10;;;;;;5067706;28;20504;-77
2021/08/20 08:42:36;;;;;;;1.90;1.90;;;24.30;69.40;;;;;;5066339;28;20608;-76
2021/08/20 08:45:05;;;;;;;3.15;2.28;;;24.40;67.60;;;;;;5069846;28;20220;-77
2021/08/20 08:47:35;;;;;;;2.00;1.83;;;24.50;68.10;;;;;;5067337;28;20187;-76
2021/08/20 08:50:04;;;;;;;1.98;1.88;;;24.60;67.50;;;;;;5068738;28;20195;-76
2021/08/20 08:52:30;;;;;;;4.13;2.00;;;24.70;66.70;;;;;;5070355;28;20273;-75
2021/08/20 08:55:00;;;;;;;2.58;2.33;;;24.80;67.40;;;;;;5069744;28;20236;-78
2021/08/20 08:57:25;;;;;;;1.98;1.88;;;25.00;67.10;;;;;;5067799;28;20215;-78
2021/08/20 08:59:51;;;;;;;2.35;2.33;;;25.10;67.00;;;;;;5070564;28;20197;-79
2021/08/20 09:02:21;;;;;;;2.20;2.10;;;25.20;65.70;;;;;;5066349;28;20192;-77
2021/08/20 09:04:57;;;;;;;2.47;2.30;;;25.40;66.00;;;;;;5058619;28;20191;-79
2021/08/20 09:07:24;;;;;;;2.15;2.00;;;25.60;65.50;;;;;;5067513;28;20190;-78
2021/08/20 09:10:10;;;;;;;2.38;2.28;;;25.70;64.80;;;;;;5064306;28;20251;-77
2021/08/20 09:12:36;;;;;;;2.45;2.35;;;25.80;65.30;;;;;;5005906;28;20200;-77
2021/08/20 09:15:03;;;;;;;2.35;2.22;;;26.00;64.90;;;;;;5008382;28;20713;-78
2021/08/20 09:17:33;;;;;;;3.90;2.65;;;26.10;64.30;;;;;;4988784;28;20221;-77
2021/08/20 09:20:15;;;;;;;3.10;2.95;;;26.40;64.40;;;;;;5007808;28;20278;-75
2021/08/20 09:22:41;;;;;;;2.47;2.45;;;26.80;63.90;;;;;;5011508;28;20199;-78
2021/08/20 09:25:07;;;;;;;2.20;2.15;;;27.30;63.20;;;;;;5012781;28;20562;-74
2021/08/20 09:27:32;;;;;;;2.50;2.40;;;27.80;62.80;;;;;;5009544;28;20193;-77
2021/08/20 09:30:07;;;;;;;3.40;2.50;;;28.10;60.50;;;;;;5008726;28;20264;-74
2021/08/20 09:32:35;;;;;;;2.95;2.67;;;28.50;60.20;;;;;;5010870;28;20184;-76
2021/08/20 09:35:01;;;;;;;2.55;2.45;;;29.00;59.30;;;;;;5009373;28;20272;-76
2021/08/20 09:37:29;;;;;;;2.47;2.47;;;29.60;58.60;;;;;;5010166;28;20225;-75
2021/08/20 09:40:00;;;;;;;2.42;2.33;;;30.30;58.30;;;;;;5009771;28;20264;-76
2021/08/20 09:42:25;;;;;;;3.35;2.60;;;30.80;57.60;;;;;;5008389;28;20192;-75
2021/08/20 09:45:12;;;;;;;2.58;2.47;;;31.50;56.40;;;;;;5011700;28;20239;-75
2021/08/20 09:47:46;;;;;;;2.05;2.05;;;32.40;55.20;;;;;;5006148;28;20176;-75
2021/08/20 09:50:12;;;;;;;2.42;2.33;;;33.00;54.10;;;;;;5046806;28;20191;-74
2021/08/20 09:52:38;;;;;;;2.85;2.65;;;33.50;53.70;;;;;;5065635;28;20201;-73
2021/08/20 09:55:04;;;;;;;4.25;2.40;;;34.00;53.40;;;;;;5071266;28;20174;-73
2021/08/20 09:57:32;;;;;;;2.20;2.10;;;34.60;52.30;;;;;;5064164;28;20255;-73
2021/08/20 09:59:58;;;;;;;2.72;2.53;;;35.00;51.90;;;;;;5060838;28;20182;-74
2021/08/20 10:02:27;;;;;;;4.80;2.70;;;35.20;51.50;;;;;;5075161;28;20184;-73
2021/08/20 10:04:58;;;;;;;2.72;2.60;;;35.30;51.00;;;;;;5065439;28;20259;-75
2021/08/20 10:07:27;;;;;;;3.58;2.90;;;35.40;50.70;;;;;;5069212;28;20240;-74
2021/08/20 10:09:55;;;;;;;2.80;2.70;;;35.50;50.70;;;;;;5069308;28;20186;-74
2021/08/20 10:12:25;;;;;;;3.28;2.92;;;35.90;50.10;;;;;;5072237;28;20262;-75
2021/08/20 10:14:53;;;;;;;2.92;2.65;;;36.10;50.30;;;;;;5073491;28;20201;-74
2021/08/20 10:17:19;;;;;;;2.95;2.85;;;36.30;50.10;;;;;;5077310;28;20205;-74
2021/08/20 10:19:51;;;;;;;2.88;2.67;;;36.40;49.80;;;;;;5074115;28;20686;-75
2021/08/20 10:22:20;;;;;;;3.05;2.95;;;36.60;49.30;;;;;;5075561;28;20182;-74
2021/08/20 10:24:46;;;;;;;2.83;2.72;;;36.80;48.80;;;;;;5066725;28;20639;-73
2021/08/20 10:27:16;;;;;;;3.38;3.17;;;37.10;49.40;;;;;;5069682;28;20297;-73
2021/08/20 10:29:47;;;;;;;2.58;2.58;;;37.50;49.30;;;;;;5067119;28;20717;-73
2021/08/20 10:32:15;;;;;;;2.65;2.55;;;37.80;47.50;;;;;;5072869;28;20182;-73
2021/08/20 10:34:42;;;;;;;2.72;2.63;;;38.30;48.00;;;;;;5070161;28;20178;-73
2021/08/20 10:37:14;;;;;;;3.58;3.47;;;38.80;46.60;;;;;;5072603;28;20220;-76
2021/08/20 10:39:44;;;;;;;3.38;3.08;;;38.90;46.80;;;;;;5070255;28;20569;-75
2021/08/20 10:42:11;;;;;;;3.65;3.35;;;38.80;46.20;;;;;;5071395;28;20175;-74
2021/08/20 10:44:39;;;;;;;2.78;2.67;;;39.00;46.30;;;;;;5072381;28;20186;-74
2021/08/20 10:47:05;;;;;;;2.90;2.80;;;39.10;47.30;;;;;;5070205;28;20189;-74
2021/08/20 10:49:40;;;;;;;2.97;2.90;;;39.40;46.30;;;;;;5072876;28;20171;-74
2021/08/20 10:52:06;;;;;;;3.60;3.45;;;39.80;45.90;;;;;;5069145;28;20188;-74
2021/08/20 10:54:33;;;;;;;4.75;3.00;;;40.10;46.20;;;;;;5068987;28;20182;-74
2021/08/20 10:57:06;;;;;;;8.55;3.25;;;40.50;45.70;;;;;;5070517;28;20213;-74
2021/08/20 10:59:43;;;;;;;3.65;3.50;;;41.00;45.10;;;;;;5074954;28;20925;-74
2021/08/20 11:02:18;;;;;;;3.47;3.28;;;41.40;43.60;;;;;;5073297;28;20182;-73
2021/08/20 11:05:03;;;;;;;3.20;3.00;;;41.20;43.20;;;;;;5070802;28;20260;-74
2021/08/20 11:07:37;;;;;;;2.97;2.75;;;41.00;44.00;;;;;;5089392;28;20183;-74
2021/08/20 11:10:09;;;;;;;3.15;2.97;;;41.40;44.20;;;;;;5075837;28;20286;-73
2021/08/20 11:12:57;;;;;;;3.35;3.15;;;41.90;44.60;;;;;;5072848;28;20248;-73
2021/08/20 11:15:25;;;;;;;3.42;3.30;;;42.30;44.80;;;;;;5067125;28;20201;-73
2021/08/20 11:17:52;;;;;;;3.47;3.35;;;42.70;43.40;;;;;;5069972;28;20244;-75
2021/08/20 11:20:30;;;;;;;3.55;3.35;;;43.00;42.90;;;;;;5077846;28;20174;-73
2021/08/20 11:23:07;;;;;;;3.75;3.45;;;43.40;42.90;;;;;;5064821;28;20184;-73
2021/08/20 11:25:44;;;;;;;3.10;3.00;;;44.00;41.90;;;;;;5077198;28;20231;-73
2021/08/20 11:28:17;;;;;;;3.20;3.10;;;44.40;41.80;;;;;;5071742;28;20186;-75
2021/08/20 11:30:57;;;;;;;5.50;3.08;;;44.80;41.00;;;;;;5070766;28;20301;-73
2021/08/20 11:33:23;;;;;;;3.78;3.47;;;45.20;41.00;;;;;;5071491;28;20189;-73
2021/08/20 11:36:00;;;;;;;4.43;3.90;;;45.30;40.50;;;;;;5068723;28;20186;-73
2021/08/20 11:38:30;;;;;;;3.55;3.10;;;45.40;41.40;;;;;;5064392;28;20938;-75
2021/08/20 11:41:03;;;;;;;3.92;3.83;;;45.00;40.90;;;;;;5066846;28;20182;-75
2021/08/20 11:43:29;;;;;;;3.65;3.42;;;44.50;42.40;;;;;;5067678;28;20180;-74
2021/08/20 11:46:06;;;;;;;3.80;3.50;;;44.40;42.80;;;;;;5062173;28;20186;-74
2021/08/20 11:48:45;;;;;;;4.13;3.30;;;44.40;41.30;;;;;;5068084;28;20185;-74
2021/08/20 11:51:12;;;;;;;4.03;3.72;;;44.60;41.30;;;;;;5070627;28;20192;-75
2021/08/20 11:53:38;;;;;;;3.55;3.45;;;44.90;40.60;;;;;;5067402;28;20187;-75
2021/08/20 11:56:14;;;;;;;3.88;3.63;;;45.20;40.90;;;;;;5069549;28;20237;-74
2021/08/20 11:58:42;;;;;;;3.78;3.67;;;45.70;40.00;;;;;;5068647;28;20185;-75
2021/08/20 12:01:12;;;;;;;4.13;3.85;;;46.10;40.50;;;;;;5073577;28;20278;-76
2021/08/20 12:03:49;;;;;;;3.90;3.78;;;46.20;39.30;;;;;;5071496;28;20270;-74
2021/08/20 12:06:16;;;;;;;3.88;3.55;;;46.00;39.30;;;;;;5067100;28;20181;-73
2021/08/20 12:08:42;;;;;;;4.03;3.83;;;45.90;40.70;;;;;;5071077;28;20826;-75
2021/08/20 12:11:10;;;;;;;4.13;4.03;;;46.00;41.10;;;;;;5068941;28;20185;-73
2021/08/20 12:13:47;;;;;;;4.32;4.10;;;45.70;39.70;;;;;;5063422;28;20196;-74
2021/08/20 12:16:32;;;;;;;4.28;4.05;;;45.50;39.50;;;;;;5063159;28;20209;-73
2021/08/20 12:19:09;;;;;;;3.90;3.70;;;45.40;39.00;;;;;;5044118;28;20239;-73
2021/08/20 12:21:34;;;;;;;3.55;3.45;;;45.10;39.50;;;;;;5054245;28;20734;-73
2021/08/20 12:24:02;;;;;;;4.60;4.20;;;45.00;41.00;;;;;;5043587;28;20195;-73
2021/08/20 12:26:29;;;;;;;4.10;4.00;;;44.80;40.50;;;;;;5072441;28;20268;-73
2021/08/20 12:28:56;;;;;;;5.22;4.72;;;44.70;40.50;;;;;;5052354;28;20949;-73
2021/08/20 12:31:24;;;;;;;4.82;4.53;;;44.80;41.50;;;;;;5048070;28;20195;-73
2021/08/20 12:34:00;;;;;;;5.07;4.63;;;45.20;40.90;;;;;;5056520;28;20182;-73
2021/08/20 12:36:27;;;;;;;6.10;4.43;;;45.30;40.30;;;;;;5048096;28;20853;-74
2021/08/20 12:39:13;;;;;;;4.50;4.40;;;45.00;40.90;;;;;;5042599;28;20182;-73
2021/08/20 12:41:41;;;;;;;4.57;4.28;;;44.90;39.60;;;;;;5043339;28;20189;-73
2021/08/20 12:44:09;;;;;;;4.30;4.20;;;45.00;40.10;;;;;;5064891;28;20251;-74
2021/08/20 12:46:43;;;;;;;4.28;4.18;;;44.90;40.80;;;;;;5072078;28;20679;-74
2021/08/20 12:49:11;;;;;;;4.45;4.25;;;44.20;40.00;;;;;;5069990;28;20256;-74